Terminal Aerodrome Forecast
Issued by NWS Mobile, AL

Home | Current Version | Previous Version | Text Only | Print | Product List | Glossary On
Versions: 1 2 3 4 5 6 7 8 9 10 11 12 13 14
000
FTUS44 KMOB 271634 AAB
TAFPNS
TAF AMD
KPNS 271634Z 2717/2812 18004KT P6SM SCT022 BKN050
     FM271800 19010KT P6SM SCT015 BKN025
     FM272100 18008KT P6SM SCT250
     FM280600 VRB03KT P6SM OVC010=

USA.gov is the U.S. government's official web portal to all federal, state and local government web resources and services.